sensor_id;sensor_type;location;lat;lon;timestamp;pressure;altitude;pressure_sealevel;temperature;humidity
24752;BME280;27246;52.376;4.628;2023-02-15T00:02:50;102812.25;;;5.16;85.70
24752;BME280;27246;52.376;4.628;2023-02-15T00:07:52;102798.09;;;5.24;87.01
24752;BME280;27246;52.376;4.628;2023-02-15T00:12:53;102787.94;;;5.26;88.43
24752;BME280;27246;52.376;4.628;2023-02-15T00:17:57;102777.19;;;5.23;88.52
24752;BME280;27246;52.376;4.628;2023-02-15T00:22:58;102787.47;;;5.05;86.54
24752;BME280;27246;52.376;4.628;2023-02-15T00:28:01;102783.88;;;5.05;86.10
24752;BME280;27246;52.376;4.628;2023-02-15T00:33:02;102771.00;;;5.07;86.44
24752;BME280;27246;52.376;4.628;2023-02-15T00:38:04;102768.38;;;5.05;86.19
24752;BME280;27246;52.376;4.628;2023-02-15T00:43:06;102771.97;;;4.91;86.31
24752;BME280;27246;52.376;4.628;2023-02-15T00:48:07;102764.94;;;4.87;86.04
24752;BME280;27246;52.376;4.628;2023-02-15T00:53:09;102768.09;;;4.95;86.06
24752;BME280;27246;52.376;4.628;2023-02-15T00:58:12;102759.72;;;4.98;86.92
24752;BME280;27246;52.376;4.628;2023-02-15T01:03:15;102764.94;;;5.01;88.09
24752;BME280;27246;52.376;4.628;2023-02-15T01:08:17;102753.63;;;4.93;86.95
24752;BME280;27246;52.376;4.628;2023-02-15T01:13:19;102758.63;;;5.01;86.20
24752;BME280;27246;52.376;4.628;2023-02-15T01:18:22;102739.41;;;5.03;86.96
24752;BME280;27246;52.376;4.628;2023-02-15T01:23:24;102746.44;;;4.92;85.57
24752;BME280;27246;52.376;4.628;2023-02-15T01:28:25;102737.00;;;4.98;85.38
24752;BME280;27246;52.376;4.628;2023-02-15T01:33:27;102732.31;;;5.00;85.79
24752;BME280;27246;52.376;4.628;2023-02-15T01:38:28;102725.47;;;4.78;85.74
24752;BME280;27246;52.376;4.628;2023-02-15T01:43:47;102728.91;;;4.82;85.88
24752;BME280;27246;52.376;4.628;2023-02-15T01:48:59;102732.06;;;4.61;85.44
24752;BME280;27246;52.376;4.628;2023-02-15T01:54:08;102732.41;;;4.55;85.55
24752;BME280;27246;52.376;4.628;2023-02-15T01:59:14;102718.69;;;4.57;84.85
24752;BME280;27246;52.376;4.628;2023-02-15T02:04:31;102720.16;;;4.48;85.02
24752;BME280;27246;52.376;4.628;2023-02-15T02:09:36;102716.56;;;4.48;84.77
24752;BME280;27246;52.376;4.628;2023-02-15T02:14:39;102706.53;;;4.48;84.62
24752;BME280;27246;52.376;4.628;2023-02-15T02:35:52;102674.66;;;4.49;84.45
24752;BME280;27246;52.376;4.628;2023-02-15T02:46:37;102673.03;;;4.32;84.08
24752;BME280;27246;52.376;4.628;2023-02-15T02:51:40;102661.63;;;4.39;84.01
24752;BME280;27246;52.376;4.628;2023-02-15T02:56:47;102648.06;;;4.38;84.18
24752;BME280;27246;52.376;4.628;2023-02-15T03:01:54;102645.03;;;4.43;83.87
24752;BME280;27246;52.376;4.628;2023-02-15T03:07:01;102644.66;;;4.34;84.10
24752;BME280;27246;52.376;4.628;2023-02-15T03:12:05;102643.31;;;4.27;83.68
24752;BME280;27246;52.376;4.628;2023-02-15T03:17:13;102636.59;;;4.18;83.47
24752;BME280;27246;52.376;4.628;2023-02-15T03:22:25;102632.63;;;4.10;83.30
24752;BME280;27246;52.376;4.628;2023-02-15T03:27:32;102629.97;;;4.08;83.77
24752;BME280;27246;52.376;4.628;2023-02-15T03:32:37;102621.78;;;4.22;83.51
24752;BME280;27246;52.376;4.628;2023-02-15T03:37:44;102615.56;;;4.06;82.99
24752;BME280;27246;52.376;4.628;2023-02-15T03:43:12;102611.19;;;4.04;83.19
24752;BME280;27246;52.376;4.628;2023-02-15T03:48:17;102609.25;;;4.06;83.52
24752;BME280;27246;52.376;4.628;2023-02-15T03:53:21;102602.78;;;4.07;83.21
24752;BME280;27246;52.376;4.628;2023-02-15T03:58:24;102602.91;;;4.05;83.34
24752;BME280;27246;52.376;4.628;2023-02-15T04:04:01;102600.97;;;4.07;83.36
24752;BME280;27246;52.376;4.628;2023-02-15T04:09:04;102588.28;;;4.06;83.67
24752;BME280;27246;52.376;4.628;2023-02-15T04:14:24;102589.38;;;4.04;84.08
24752;BME280;27246;52.376;4.628;2023-02-15T04:19:45;102574.84;;;4.17;84.35
24752;BME280;27246;52.376;4.628;2023-02-15T04:25:05;102577.06;;;4.25;84.43
24752;BME280;27246;52.376;4.628;2023-02-15T04:30:18;102562.84;;;4.20;84.29
24752;BME280;27246;52.376;4.628;2023-02-15T04:35:20;102566.44;;;4.20;84.58
24752;BME280;27246;52.376;4.628;2023-02-15T04:40:21;102565.66;;;4.18;84.72
24752;BME280;27246;52.376;4.628;2023-02-15T04:45:23;102562.56;;;4.10;85.29
24752;BME280;27246;52.376;4.628;2023-02-15T04:50:25;102556.81;;;4.15;84.72
24752;BME280;27246;52.376;4.628;2023-02-15T04:55:26;102559.84;;;4.10;85.08
24752;BME280;27246;52.376;4.628;2023-02-15T05:00:28;102554.41;;;3.96;88.62
24752;BME280;27246;52.376;4.628;2023-02-15T05:05:30;102554.03;;;4.02;91.04
24752;BME280;27246;52.376;4.628;2023-02-15T05:10:31;102553.06;;;4.03;91.59
24752;BME280;27246;52.376;4.628;2023-02-15T05:15:33;102543.31;;;4.13;89.51
24752;BME280;27246;52.376;4.628;2023-02-15T05:20:35;102540.16;;;4.19;89.27
24752;BME280;27246;52.376;4.628;2023-02-15T05:25:37;102561.66;;;4.24;89.79
24752;BME280;27246;52.376;4.628;2023-02-15T05:35:59;102550.72;;;4.11;90.56
24752;BME280;27246;52.376;4.628;2023-02-15T05:41:04;102551.69;;;3.96;92.05
24752;BME280;27246;52.376;4.628;2023-02-15T05:46:05;102554.25;;;3.99;92.77
24752;BME280;27246;52.376;4.628;2023-02-15T05:51:10;102550.72;;;3.82;93.17
24752;BME280;27246;52.376;4.628;2023-02-15T05:56:17;102526.41;;;3.79;94.42
24752;BME280;27246;52.376;4.628;2023-02-15T06:01:19;102529.03;;;3.81;94.28
24752;BME280;27246;52.376;4.628;2023-02-15T06:06:23;102513.84;;;3.91;94.78
24752;BME280;27246;52.376;4.628;2023-02-15T06:11:24;102508.66;;;3.87;94.15
24752;BME280;27246;52.376;4.628;2023-02-15T06:16:26;102517.78;;;4.00;93.74
24752;BME280;27246;52.376;4.628;2023-02-15T06:21:29;102523.66;;;3.94;93.38
24752;BME280;27246;52.376;4.628;2023-02-15T06:26:31;102522.69;;;3.80;93.85
24752;BME280;27246;52.376;4.628;2023-02-15T06:31:33;102523.00;;;3.76;95.17
24752;BME280;27246;52.376;4.628;2023-02-15T06:36:34;102526.34;;;3.67;95.80
24752;BME280;27246;52.376;4.628;2023-02-15T06:41:36;102527.38;;;3.78;95.10
24752;BME280;27246;52.376;4.628;2023-02-15T06:46:38;102527.56;;;3.75;95.08
24752;BME280;27246;52.376;4.628;2023-02-15T06:51:40;102522.31;;;3.58;95.94
24752;BME280;27246;52.376;4.628;2023-02-15T06:56:41;102524.16;;;3.72;96.10
24752;BME280;27246;52.376;4.628;2023-02-15T07:01:44;102512.78;;;3.65;96.24
24752;BME280;27246;52.376;4.628;2023-02-15T07:06:47;102516.88;;;3.58;96.54
24752;BME280;27246;52.376;4.628;2023-02-15T07:11:48;102512.59;;;3.54;96.75
24752;BME280;27246;52.376;4.628;2023-02-15T07:17:08;102505.09;;;3.57;96.68
24752;BME280;27246;52.376;4.628;2023-02-15T07:22:30;102499.19;;;3.51;97.34
24752;BME280;27246;52.376;4.628;2023-02-15T07:27:32;102505.69;;;3.48;97.92
24752;BME280;27246;52.376;4.628;2023-02-15T07:32:34;102494.50;;;3.53;97.56
24752;BME280;27246;52.376;4.628;2023-02-15T07:37:35;102485.34;;;3.54;97.42
24752;BME280;27246;52.376;4.628;2023-02-15T07:42:37;102484.19;;;3.58;97.96
24752;BME280;27246;52.376;4.628;2023-02-15T07:47:39;102479.69;;;3.71;97.11
24752;BME280;27246;52.376;4.628;2023-02-15T07:52:40;102483.38;;;3.70;96.85
24752;BME280;27246;52.376;4.628;2023-02-15T07:57:46;102476.75;;;3.74;97.02
24752;BME280;27246;52.376;4.628;2023-02-15T08:02:53;102471.50;;;3.86;96.19
24752;BME280;27246;52.376;4.628;2023-02-15T08:08:14;102463.06;;;4.03;95.85
24752;BME280;27246;52.376;4.628;2023-02-15T08:13:31;102458.19;;;4.08;95.54
24752;BME280;27246;52.376;4.628;2023-02-15T08:18:32;102457.69;;;3.74;95.74
24752;BME280;27246;52.376;4.628;2023-02-15T08:23:35;102458.19;;;3.67;96.63
24752;BME280;27246;52.376;4.628;2023-02-15T08:28:37;102460.31;;;3.76;96.97
24752;BME280;27246;52.376;4.628;2023-02-15T08:33:41;102464.50;;;3.81;96.65
24752;BME280;27246;52.376;4.628;2023-02-15T08:38:44;102464.34;;;3.97;95.51
24752;BME280;27246;52.376;4.628;2023-02-15T08:43:48;102469.72;;;3.99;95.66
24752;BME280;27246;52.376;4.628;2023-02-15T08:48:50;102468.53;;;4.03;96.03
24752;BME280;27246;52.376;4.628;2023-02-15T08:53:55;102467.72;;;4.15;95.72
24752;BME280;27246;52.376;4.628;2023-02-15T08:58:57;102470.44;;;4.15;95.06
24752;BME280;27246;52.376;4.628;2023-02-15T09:04:01;102468.53;;;4.03;95.51
24752;BME280;27246;52.376;4.628;2023-02-15T09:09:03;102466.47;;;4.34;95.28
24752;BME280;27246;52.376;4.628;2023-02-15T09:14:08;102453.75;;;4.60;93.43
24752;BME280;27246;52.376;4.628;2023-02-15T09:19:10;102460.09;;;4.60;92.96
24752;BME280;27246;52.376;4.628;2023-02-15T09:24:14;102460.84;;;4.50;93.35
24752;BME280;27246;52.376;4.628;2023-02-15T09:29:18;102447.53;;;4.71;93.05
24752;BME280;27246;52.376;4.628;2023-02-15T09:34:21;102437.84;;;4.92;92.79
24752;BME280;27246;52.376;4.628;2023-02-15T09:39:25;102438.88;;;5.17;91.00
24752;BME280;27246;52.376;4.628;2023-02-15T09:49:41;102443.00;;;5.23;91.07
24752;BME280;27246;52.376;4.628;2023-02-15T10:00:34;102431.56;;;5.67;89.81
24752;BME280;27246;52.376;4.628;2023-02-15T10:11:31;102433.34;;;6.16;87.66
24752;BME280;27246;52.376;4.628;2023-02-15T10:22:28;102443.25;;;6.66;86.23
24752;BME280;27246;52.376;4.628;2023-02-15T10:27:48;102438.47;;;6.56;85.38
24752;BME280;27246;52.376;4.628;2023-02-15T10:33:01;102436.06;;;6.76;84.43
24752;BME280;27246;52.376;4.628;2023-02-15T10:53:54;102404.59;;;6.93;82.96
24752;BME280;27246;52.376;4.628;2023-02-15T10:59:22;102384.78;;;7.00;83.56
24752;BME280;27246;52.376;4.628;2023-02-15T11:04:40;102376.06;;;6.95;83.75
24752;BME280;27246;52.376;4.628;2023-02-15T11:10:01;102371.09;;;7.23;83.17
24752;BME280;27246;52.376;4.628;2023-02-15T11:15:31;102370.72;;;7.16;82.71
24752;BME280;27246;52.376;4.628;2023-02-15T11:20:41;102372.44;;;7.17;82.12
24752;BME280;27246;52.376;4.628;2023-02-15T11:25:59;102378.06;;;7.27;82.29
24752;BME280;27246;52.376;4.628;2023-02-15T11:31:21;102395.16;;;7.42;82.83
24752;BME280;27246;52.376;4.628;2023-02-15T11:36:36;102386.53;;;7.69;82.01
24752;BME280;27246;52.376;4.628;2023-02-15T11:41:52;102353.81;;;7.89;81.71
24752;BME280;27246;52.376;4.628;2023-02-15T11:46:56;102357.13;;;7.92;81.36
24752;BME280;27246;52.376;4.628;2023-02-15T11:51:58;102348.00;;;8.03;81.11
24752;BME280;27246;52.376;4.628;2023-02-15T11:57:17;102344.38;;;8.02;82.14
24752;BME280;27246;52.376;4.628;2023-02-15T12:02:21;102346.28;;;8.23;79.97
24752;BME280;27246;52.376;4.628;2023-02-15T12:07:26;102331.63;;;8.34;78.91
24752;BME280;27246;52.376;4.628;2023-02-15T12:12:32;102328.59;;;8.37;78.71
24752;BME280;27246;52.376;4.628;2023-02-15T12:17:50;102341.13;;;8.30;78.04
24752;BME280;27246;52.376;4.628;2023-02-15T12:23:03;102339.03;;;8.43;77.14
24752;BME280;27246;52.376;4.628;2023-02-15T12:33:29;102336.72;;;8.59;77.08
24752;BME280;27246;52.376;4.628;2023-02-15T12:38:32;102330.81;;;8.64;75.80
24752;BME280;27246;52.376;4.628;2023-02-15T12:43:36;102335.25;;;8.55;77.03
24752;BME280;27246;52.376;4.628;2023-02-15T12:48:38;102322.81;;;8.61;77.41
24752;BME280;27246;52.376;4.628;2023-02-15T12:53:41;102312.38;;;8.76;77.74
24752;BME280;27246;52.376;4.628;2023-02-15T12:58:45;102307.13;;;8.73;77.42
24752;BME280;27246;52.376;4.628;2023-02-15T13:08:58;102300.28;;;8.88;77.09
24752;BME280;27246;52.376;4.628;2023-02-15T13:19:29;102299.16;;;9.00;76.20
24752;BME280;27246;52.376;4.628;2023-02-15T13:24:39;102303.09;;;9.08;74.01
24752;BME280;27246;52.376;4.628;2023-02-15T13:29:51;102295.31;;;9.13;73.19
24752;BME280;27246;52.376;4.628;2023-02-15T13:34:57;102289.81;;;9.13;72.17
24752;BME280;27246;52.376;4.628;2023-02-15T13:40:07;102273.47;;;9.21;71.78
24752;BME280;27246;52.376;4.628;2023-02-15T13:45:47;102273.47;;;9.21;71.86
24752;BME280;27246;52.376;4.628;2023-02-15T13:51:21;102263.13;;;9.34;71.80
24752;BME280;27246;52.376;4.628;2023-02-15T14:01:43;102245.16;;;9.40;71.27
24752;BME280;27246;52.376;4.628;2023-02-15T14:12:32;102248.50;;;9.44;71.66
24752;BME280;27246;52.376;4.628;2023-02-15T14:23:15;102250.69;;;9.59;71.29
24752;BME280;27246;52.376;4.628;2023-02-15T14:28:27;102250.69;;;9.59;71.67
24752;BME280;27246;52.376;4.628;2023-02-15T14:33:38;102248.81;;;9.60;72.85
24752;BME280;27246;52.376;4.628;2023-02-15T14:44:15;102250.56;;;9.61;72.57
24752;BME280;27246;52.376;4.628;2023-02-15T14:49:22;102256.78;;;9.63;72.63
24752;BME280;27246;52.376;4.628;2023-02-15T14:59:37;102247.22;;;9.67;69.12
24752;BME280;27246;52.376;4.628;2023-02-15T15:04:43;102243.31;;;9.70;69.37
24752;BME280;27246;52.376;4.628;2023-02-15T15:09:58;102248.22;;;9.66;65.95
24752;BME280;27246;52.376;4.628;2023-02-15T15:15:02;102239.13;;;9.66;64.12
24752;BME280;27246;52.376;4.628;2023-02-15T15:20:14;102224.34;;;9.57;61.64
24752;BME280;27246;52.376;4.628;2023-02-15T15:25:57;102227.38;;;9.54;60.25
24752;BME280;27246;52.376;4.628;2023-02-15T15:31:30;102222.59;;;9.56;66.57
24752;BME280;27246;52.376;4.628;2023-02-15T15:53:23;102207.09;;;9.35;73.02
24752;BME280;27246;52.376;4.628;2023-02-15T15:58:26;102196.66;;;9.29;73.31
24752;BME280;27246;52.376;4.628;2023-02-15T16:03:28;102192.75;;;9.22;73.65
24752;BME280;27246;52.376;4.628;2023-02-15T16:08:36;102187.53;;;9.19;73.18
24752;BME280;27246;52.376;4.628;2023-02-15T16:13:40;102192.56;;;9.14;73.83
24752;BME280;27246;52.376;4.628;2023-02-15T16:18:51;102191.09;;;9.10;73.81
24752;BME280;27246;52.376;4.628;2023-02-15T16:24:16;102200.34;;;8.99;73.80
24752;BME280;27246;52.376;4.628;2023-02-15T16:29:28;102206.56;;;8.91;74.08
24752;BME280;27246;52.376;4.628;2023-02-15T16:34:30;102200.50;;;8.88;73.84
24752;BME280;27246;52.376;4.628;2023-02-15T16:39:40;102192.66;;;8.83;74.37
24752;BME280;27246;52.376;4.628;2023-02-15T16:44:44;102192.22;;;8.78;74.51
24752;BME280;27246;52.376;4.628;2023-02-15T16:49:48;102199.25;;;8.71;75.25
24752;BME280;27246;52.376;4.628;2023-02-15T16:55:00;102195.34;;;8.64;75.39
24752;BME280;27246;52.376;4.628;2023-02-15T17:00:14;102189.53;;;8.57;75.81
24752;BME280;27246;52.376;4.628;2023-02-15T17:05:18;102209.44;;;8.49;75.94
24752;BME280;27246;52.376;4.628;2023-02-15T17:10:27;102215.47;;;8.43;76.41
24752;BME280;27246;52.376;4.628;2023-02-15T17:15:35;102216.75;;;8.39;76.59
24752;BME280;27246;52.376;4.628;2023-02-15T17:20:38;102211.69;;;8.34;76.40
24752;BME280;27246;52.376;4.628;2023-02-15T17:25:43;102209.47;;;8.28;76.91
24752;BME280;27246;52.376;4.628;2023-02-15T17:30:45;102217.13;;;8.25;76.52
24752;BME280;27246;52.376;4.628;2023-02-15T17:36:08;102221.31;;;8.29;76.81
24752;BME280;27246;52.376;4.628;2023-02-15T17:41:10;102229.72;;;8.27;77.00
24752;BME280;27246;52.376;4.628;2023-02-15T17:46:11;102236.06;;;8.28;77.26
24752;BME280;27246;52.376;4.628;2023-02-15T17:51:14;102234.78;;;8.32;77.46
24752;BME280;27246;52.376;4.628;2023-02-15T17:56:16;102230.66;;;8.16;77.87
24752;BME280;27246;52.376;4.628;2023-02-15T18:01:19;102232.34;;;8.08;79.08
24752;BME280;27246;52.376;4.628;2023-02-15T18:06:43;102229.28;;;8.01;79.82
24752;BME280;27246;52.376;4.628;2023-02-15T18:12:23;102233.00;;;8.00;80.32
24752;BME280;27246;52.376;4.628;2023-02-15T18:17:35;102227.81;;;7.97;80.71
24752;BME280;27246;52.376;4.628;2023-02-15T18:22:38;102227.59;;;7.89;81.41
24752;BME280;27246;52.376;4.628;2023-02-15T18:27:40;102225.09;;;7.86;81.47
24752;BME280;27246;52.376;4.628;2023-02-15T18:32:42;102228.09;;;7.82;81.71
24752;BME280;27246;52.376;4.628;2023-02-15T18:37:47;102220.59;;;7.85;81.91
24752;BME280;27246;52.376;4.628;2023-02-15T18:42:49;102227.31;;;7.92;81.63
24752;BME280;27246;52.376;4.628;2023-02-15T18:47:51;102225.22;;;7.84;81.49
24752;BME280;27246;52.376;4.628;2023-02-15T18:52:52;102224.97;;;7.87;81.33
24752;BME280;27246;52.376;4.628;2023-02-15T18:57:55;102216.00;;;7.85;80.99
24752;BME280;27246;52.376;4.628;2023-02-15T19:02:58;102220.28;;;7.78;81.51
24752;BME280;27246;52.376;4.628;2023-02-15T19:08:00;102232.00;;;7.80;81.58
24752;BME280;27246;52.376;4.628;2023-02-15T19:13:02;102225.34;;;7.82;80.93
24752;BME280;27246;52.376;4.628;2023-02-15T19:18:05;102215.94;;;7.75;81.11
24752;BME280;27246;52.376;4.628;2023-02-15T19:23:13;102221.13;;;7.78;80.96
24752;BME280;27246;52.376;4.628;2023-02-15T19:28:18;102208.69;;;7.74;80.58
24752;BME280;27246;52.376;4.628;2023-02-15T19:33:22;102210.56;;;7.74;80.48
24752;BME280;27246;52.376;4.628;2023-02-15T19:38:27;102208.13;;;7.71;80.11
24752;BME280;27246;52.376;4.628;2023-02-15T19:43:31;102213.13;;;7.66;80.14
24752;BME280;27246;52.376;4.628;2023-02-15T19:48:34;102198.69;;;7.52;80.57
24752;BME280;27246;52.376;4.628;2023-02-15T19:53:35;102193.50;;;7.49;80.37
24752;BME280;27246;52.376;4.628;2023-02-15T19:58:37;102201.13;;;7.34;80.85
24752;BME280;27246;52.376;4.628;2023-02-15T20:03:39;102190.63;;;7.39;80.84
24752;BME280;27246;52.376;4.628;2023-02-15T20:08:41;102199.22;;;7.46;79.88
24752;BME280;27246;52.376;4.628;2023-02-15T20:13:43;102200.63;;;7.40;nan
24752;BME280;27246;52.376;4.628;2023-02-15T20:18:45;102197.25;;;7.37;79.88
24752;BME280;27246;52.376;4.628;2023-02-15T20:23:47;102196.19;;;7.28;79.78
24752;BME280;27246;52.376;4.628;2023-02-15T20:28:49;102197.78;;;7.31;79.94
24752;BME280;27246;52.376;4.628;2023-02-15T20:33:51;102192.38;;;7.40;79.62
24752;BME280;27246;52.376;4.628;2023-02-15T20:39:02;102183.91;;;7.44;78.39
24752;BME280;27246;52.376;4.628;2023-02-15T20:44:18;102193.16;;;7.43;78.21
24752;BME280;27246;52.376;4.628;2023-02-15T20:49:23;102189.66;;;7.40;78.27
24752;BME280;27246;52.376;4.628;2023-02-15T20:54:29;102190.94;;;7.25;77.80
24752;BME280;27246;52.376;4.628;2023-02-15T20:59:33;102192.94;;;7.23;77.69
24752;BME280;27246;52.376;4.628;2023-02-15T21:04:35;102193.97;;;7.11;77.75
24752;BME280;27246;52.376;4.628;2023-02-15T21:09:36;102194.72;;;7.13;77.74
24752;BME280;27246;52.376;4.628;2023-02-15T21:14:38;102192.59;;;7.16;77.16
24752;BME280;27246;52.376;4.628;2023-02-15T21:19:40;102182.00;;;7.12;77.16
24752;BME280;27246;52.376;4.628;2023-02-15T21:24:48;102191.00;;;7.02;77.90
24752;BME280;27246;52.376;4.628;2023-02-15T21:29:51;102194.38;;;7.06;77.60
24752;BME280;27246;52.376;4.628;2023-02-15T21:34:52;102194.50;;;7.05;77.56
24752;BME280;27246;52.376;4.628;2023-02-15T21:39:56;102191.88;;;7.03;77.74
24752;BME280;27246;52.376;4.628;2023-02-15T21:44:57;102198.09;;;7.05;77.75
24752;BME280;27246;52.376;4.628;2023-02-15T21:50:19;102191.34;;;7.09;77.55
24752;BME280;27246;52.376;4.628;2023-02-15T21:55:40;102183.78;;;7.01;78.01
24752;BME280;27246;52.376;4.628;2023-02-15T22:00:42;102181.31;;;6.98;78.21
24752;BME280;27246;52.376;4.628;2023-02-15T22:05:44;102179.56;;;6.97;78.48
24752;BME280;27246;52.376;4.628;2023-02-15T22:10:46;102190.66;;;6.96;78.65
24752;BME280;27246;52.376;4.628;2023-02-15T22:15:48;102188.50;;;6.99;78.63
24752;BME280;27246;52.376;4.628;2023-02-15T22:20:50;102180.56;;;6.96;78.62
24752;BME280;27246;52.376;4.628;2023-02-15T22:25:58;102190.75;;;7.06;78.21
24752;BME280;27246;52.376;4.628;2023-02-15T22:31:03;102198.09;;;7.05;77.92
24752;BME280;27246;52.376;4.628;2023-02-15T22:36:20;102200.88;;;6.94;78.68
24752;BME280;27246;52.376;4.628;2023-02-15T22:41:26;102188.91;;;6.95;78.09
24752;BME280;27246;52.376;4.628;2023-02-15T22:46:29;102195.28;;;6.84;78.33
24752;BME280;27246;52.376;4.628;2023-02-15T22:51:30;102195.75;;;6.89;77.99
24752;BME280;27246;52.376;4.628;2023-02-15T22:56:42;102199.53;;;6.88;77.24
24752;BME280;27246;52.376;4.628;2023-02-15T23:01:44;102195.03;;;6.87;76.94
24752;BME280;27246;52.376;4.628;2023-02-15T23:06:47;102184.56;;;6.92;76.52
24752;BME280;27246;52.376;4.628;2023-02-15T23:11:50;102181.44;;;6.97;75.87
24752;BME280;27246;52.376;4.628;2023-02-15T23:16:52;102187.66;;;6.99;75.72
24752;BME280;27246;52.376;4.628;2023-02-15T23:21:54;102182.91;;;7.01;75.46
24752;BME280;27246;52.376;4.628;2023-02-15T23:26:57;102185.25;;;7.06;75.15
24752;BME280;27246;52.376;4.628;2023-02-15T23:32:19;102176.06;;;7.07;75.13
24752;BME280;27246;52.376;4.628;2023-02-15T23:37:22;102168.56;;;7.09;74.75
24752;BME280;27246;52.376;4.628;2023-02-15T23:42:27;102164.69;;;7.11;74.73
24752;BME280;27246;52.376;4.628;2023-02-15T23:47:32;102180.00;;;7.14;74.48
24752;BME280;27246;52.376;4.628;2023-02-15T23:52:54;102172.78;;;7.13;74.50
24752;BME280;27246;52.376;4.628;2023-02-15T23:57:56;102173.78;;;7.12;74.33
